sensor_id;sensor_type;location;lat;lon;timestamp;temperature;humidity
21678;DHT22;11000;50.360;7.582;2022-11-15T00:02:12;8.80;99.90
21678;DHT22;11000;50.360;7.582;2022-11-15T00:04:32;8.80;99.90
21678;DHT22;11000;50.360;7.582;2022-11-15T00:06:53;8.80;99.90
21678;DHT22;11000;50.360;7.582;2022-11-15T00:09:13;8.80;99.90
21678;DHT22;11000;50.360;7.582;2022-11-15T00:11:34;8.80;99.90
21678;DHT22;11000;50.360;7.582;2022-11-15T00:13:57;8.80;99.90
21678;DHT22;11000;50.360;7.582;2022-11-15T00:16:18;8.80;99.90
21678;DHT22;11000;50.360;7.582;2022-11-15T00:18:39;8.80;99.90
21678;DHT22;11000;50.360;7.582;2022-11-15T00:21:08;8.70;99.90
21678;DHT22;11000;50.360;7.582;2022-11-15T00:23:29;8.70;99.90
21678;DHT22;11000;50.360;7.582;2022-11-15T00:25:57;8.80;99.90
21678;DHT22;11000;50.360;7.582;2022-11-15T00:28:18;8.70;99.90
21678;DHT22;11000;50.360;7.582;2022-11-15T00:30:38;8.70;99.90
21678;DHT22;11000;50.360;7.582;2022-11-15T00:33:05;8.70;99.90
21678;DHT22;11000;50.360;7.582;2022-11-15T00:35:26;8.70;99.90
21678;DHT22;11000;50.360;7.582;2022-11-15T00:37:47;8.70;99.90
21678;DHT22;11000;50.360;7.582;2022-11-15T00:40:09;8.70;99.90
21678;DHT22;11000;50.360;7.582;2022-11-15T00:42:29;8.70;99.90
21678;DHT22;11000;50.360;7.582;2022-11-15T00:44:50;8.70;99.90
21678;DHT22;11000;50.360;7.582;2022-11-15T00:47:10;8.70;99.90
21678;DHT22;11000;50.360;7.582;2022-11-15T00:49:31;8.70;99.90
21678;DHT22;11000;50.360;7.582;2022-11-15T00:51:51;8.70;99.90
21678;DHT22;11000;50.360;7.582;2022-11-15T00:54:12;8.70;99.90
21678;DHT22;11000;50.360;7.582;2022-11-15T00:56:32;8.70;99.90
21678;DHT22;11000;50.360;7.582;2022-11-15T00:58:53;8.70;99.90
21678;DHT22;11000;50.360;7.582;2022-11-15T01:01:14;8.70;99.90
21678;DHT22;11000;50.360;7.582;2022-11-15T01:03:35;8.70;99.90
21678;DHT22;11000;50.360;7.582;2022-11-15T01:05:59;8.70;99.90
21678;DHT22;11000;50.360;7.582;2022-11-15T01:08:20;8.70;99.90
21678;DHT22;11000;50.360;7.582;2022-11-15T01:10:41;8.70;99.90
21678;DHT22;11000;50.360;7.582;2022-11-15T01:13:01;8.70;99.90
21678;DHT22;11000;50.360;7.582;2022-11-15T01:15:22;8.70;99.90
21678;DHT22;11000;50.360;7.582;2022-11-15T01:17:42;8.80;99.90
21678;DHT22;11000;50.360;7.582;2022-11-15T01:20:03;8.80;99.90
21678;DHT22;11000;50.360;7.582;2022-11-15T01:22:24;8.80;99.90
21678;DHT22;11000;50.360;7.582;2022-11-15T01:24:44;8.80;99.90
21678;DHT22;11000;50.360;7.582;2022-11-15T01:27:05;8.90;99.90
21678;DHT22;11000;50.360;7.582;2022-11-15T01:29:25;9.00;99.90
21678;DHT22;11000;50.360;7.582;2022-11-15T01:31:46;9.10;99.90
21678;DHT22;11000;50.360;7.582;2022-11-15T01:34:06;9.10;99.90
21678;DHT22;11000;50.360;7.582;2022-11-15T01:36:26;9.20;99.90
21678;DHT22;11000;50.360;7.582;2022-11-15T01:38:54;9.20;99.90
21678;DHT22;11000;50.360;7.582;2022-11-15T01:41:21;9.40;99.90
21678;DHT22;11000;50.360;7.582;2022-11-15T01:43:42;9.60;99.90
21678;DHT22;11000;50.360;7.582;2022-11-15T01:46:25;9.80;99.90
21678;DHT22;11000;50.360;7.582;2022-11-15T01:48:50;10.00;99.90
21678;DHT22;11000;50.360;7.582;2022-11-15T01:51:13;10.20;99.90
21678;DHT22;11000;50.360;7.582;2022-11-15T01:53:37;10.20;99.90
21678;DHT22;11000;50.360;7.582;2022-11-15T01:56:02;10.30;99.90
21678;DHT22;11000;50.360;7.582;2022-11-15T01:58:24;10.30;99.90
21678;DHT22;11000;50.360;7.582;2022-11-15T02:00:45;10.40;99.90
21678;DHT22;11000;50.360;7.582;2022-11-15T02:03:05;10.40;99.90
21678;DHT22;11000;50.360;7.582;2022-11-15T02:05:26;10.50;99.90
21678;DHT22;11000;50.360;7.582;2022-11-15T02:07:47;10.70;99.90
21678;DHT22;11000;50.360;7.582;2022-11-15T02:10:12;10.80;99.90
21678;DHT22;11000;50.360;7.582;2022-11-15T02:12:34;10.90;99.90
21678;DHT22;11000;50.360;7.582;2022-11-15T02:14:55;11.00;99.90
21678;DHT22;11000;50.360;7.582;2022-11-15T02:30:54;11.30;99.90
21678;DHT22;11000;50.360;7.582;2022-11-15T02:33:42;11.40;99.90
21678;DHT22;11000;50.360;7.582;2022-11-15T02:36:10;11.50;99.90
21678;DHT22;11000;50.360;7.582;2022-11-15T02:41:24;11.60;99.90
21678;DHT22;11000;50.360;7.582;2022-11-15T02:46:34;11.50;99.90
21678;DHT22;11000;50.360;7.582;2022-11-15T02:49:14;11.50;99.90
21678;DHT22;11000;50.360;7.582;2022-11-15T02:51:35;11.50;99.90
21678;DHT22;11000;50.360;7.582;2022-11-15T02:53:56;11.60;99.90
21678;DHT22;11000;50.360;7.582;2022-11-15T02:56:16;11.60;99.90
21678;DHT22;11000;50.360;7.582;2022-11-15T02:59:12;11.60;99.90
21678;DHT22;11000;50.360;7.582;2022-11-15T03:04:23;11.70;99.90
21678;DHT22;11000;50.360;7.582;2022-11-15T03:06:55;11.80;99.90
21678;DHT22;11000;50.360;7.582;2022-11-15T03:09:28;11.80;99.90
21678;DHT22;11000;50.360;7.582;2022-11-15T03:11:56;11.80;99.90
21678;DHT22;11000;50.360;7.582;2022-11-15T03:17:29;11.90;99.90
21678;DHT22;11000;50.360;7.582;2022-11-15T03:19:50;11.90;99.90
21678;DHT22;11000;50.360;7.582;2022-11-15T03:22:18;11.90;99.90
21678;DHT22;11000;50.360;7.582;2022-11-15T03:24:42;11.90;99.90
21678;DHT22;11000;50.360;7.582;2022-11-15T03:27:06;11.90;99.90
21678;DHT22;11000;50.360;7.582;2022-11-15T03:29:32;12.00;99.90
21678;DHT22;11000;50.360;7.582;2022-11-15T03:32:22;12.00;99.90
21678;DHT22;11000;50.360;7.582;2022-11-15T03:34:56;12.00;99.90
21678;DHT22;11000;50.360;7.582;2022-11-15T03:37:21;12.10;99.90
21678;DHT22;11000;50.360;7.582;2022-11-15T03:39:43;12.10;99.90
21678;DHT22;11000;50.360;7.582;2022-11-15T03:42:22;12.00;99.90
21678;DHT22;11000;50.360;7.582;2022-11-15T03:45:02;12.10;99.90
21678;DHT22;11000;50.360;7.582;2022-11-15T03:47:38;12.10;99.90
21678;DHT22;11000;50.360;7.582;2022-11-15T03:50:10;12.10;99.90
21678;DHT22;11000;50.360;7.582;2022-11-15T03:52:34;12.10;99.90
21678;DHT22;11000;50.360;7.582;2022-11-15T03:54:56;12.10;99.90
21678;DHT22;11000;50.360;7.582;2022-11-15T03:57:16;12.10;99.90
21678;DHT22;11000;50.360;7.582;2022-11-15T03:59:37;12.10;99.90
21678;DHT22;11000;50.360;7.582;2022-11-15T04:01:57;12.10;99.90
21678;DHT22;11000;50.360;7.582;2022-11-15T04:04:18;12.10;99.90
21678;DHT22;11000;50.360;7.582;2022-11-15T04:06:38;12.10;99.90
21678;DHT22;11000;50.360;7.582;2022-11-15T04:08:59;12.10;99.90
21678;DHT22;11000;50.360;7.582;2022-11-15T04:11:19;12.10;99.90
21678;DHT22;11000;50.360;7.582;2022-11-15T04:13:40;12.10;99.90
21678;DHT22;11000;50.360;7.582;2022-11-15T04:16:00;12.10;99.90
21678;DHT22;11000;50.360;7.582;2022-11-15T04:18:21;12.10;99.90
21678;DHT22;11000;50.360;7.582;2022-11-15T04:20:42;12.10;99.90
21678;DHT22;11000;50.360;7.582;2022-11-15T04:23:22;12.10;99.90
21678;DHT22;11000;50.360;7.582;2022-11-15T04:26:04;12.20;99.90
21678;DHT22;11000;50.360;7.582;2022-11-15T04:28:25;12.20;99.90
21678;DHT22;11000;50.360;7.582;2022-11-15T04:30:46;12.20;99.90
21678;DHT22;11000;50.360;7.582;2022-11-15T04:33:06;12.10;99.90
21678;DHT22;11000;50.360;7.582;2022-11-15T04:35:27;12.20;99.90
21678;DHT22;11000;50.360;7.582;2022-11-15T04:37:47;12.10;99.90
21678;DHT22;11000;50.360;7.582;2022-11-15T04:40:08;12.20;99.90
21678;DHT22;11000;50.360;7.582;2022-11-15T04:42:29;12.10;99.90
21678;DHT22;11000;50.360;7.582;2022-11-15T04:44:49;12.10;99.90
21678;DHT22;11000;50.360;7.582;2022-11-15T04:47:10;12.20;99.90
21678;DHT22;11000;50.360;7.582;2022-11-15T04:49:30;12.10;99.90
21678;DHT22;11000;50.360;7.582;2022-11-15T04:51:51;12.10;99.90
21678;DHT22;11000;50.360;7.582;2022-11-15T04:54:11;12.00;99.90
21678;DHT22;11000;50.360;7.582;2022-11-15T04:56:32;12.00;99.90
21678;DHT22;11000;50.360;7.582;2022-11-15T04:58:52;12.00;99.90
21678;DHT22;11000;50.360;7.582;2022-11-15T05:01:14;12.00;99.90
21678;DHT22;11000;50.360;7.582;2022-11-15T05:03:35;11.90;99.90
21678;DHT22;11000;50.360;7.582;2022-11-15T05:06:14;11.90;99.90
21678;DHT22;11000;50.360;7.582;2022-11-15T05:08:34;11.80;99.90
21678;DHT22;11000;50.360;7.582;2022-11-15T05:10:55;11.80;99.90
21678;DHT22;11000;50.360;7.582;2022-11-15T05:13:15;11.70;99.90
21678;DHT22;11000;50.360;7.582;2022-11-15T05:15:39;11.70;99.90
21678;DHT22;11000;50.360;7.582;2022-11-15T05:18:00;11.60;99.90
21678;DHT22;11000;50.360;7.582;2022-11-15T05:20:20;11.60;99.90
21678;DHT22;11000;50.360;7.582;2022-11-15T05:22:41;11.70;99.90
21678;DHT22;11000;50.360;7.582;2022-11-15T05:25:01;11.60;99.90
21678;DHT22;11000;50.360;7.582;2022-11-15T05:27:22;11.60;99.90
21678;DHT22;11000;50.360;7.582;2022-11-15T05:29:42;11.60;99.90
21678;DHT22;11000;50.360;7.582;2022-11-15T05:32:05;11.60;99.90
21678;DHT22;11000;50.360;7.582;2022-11-15T05:34:26;11.60;99.90
21678;DHT22;11000;50.360;7.582;2022-11-15T05:36:47;11.50;99.90
21678;DHT22;11000;50.360;7.582;2022-11-15T05:39:07;11.50;99.90
21678;DHT22;11000;50.360;7.582;2022-11-15T05:41:44;11.50;99.90
21678;DHT22;11000;50.360;7.582;2022-11-15T05:44:09;11.40;99.90
21678;DHT22;11000;50.360;7.582;2022-11-15T05:46:30;11.50;99.90
21678;DHT22;11000;50.360;7.582;2022-11-15T05:48:53;11.50;99.90
21678;DHT22;11000;50.360;7.582;2022-11-15T05:51:15;11.40;99.90
21678;DHT22;11000;50.360;7.582;2022-11-15T05:53:37;11.40;99.90
21678;DHT22;11000;50.360;7.582;2022-11-15T05:55:57;11.40;99.90
21678;DHT22;11000;50.360;7.582;2022-11-15T05:58:19;11.40;99.90
21678;DHT22;11000;50.360;7.582;2022-11-15T06:00:41;11.40;99.90
21678;DHT22;11000;50.360;7.582;2022-11-15T06:03:03;11.50;99.90
21678;DHT22;11000;50.360;7.582;2022-11-15T06:05:23;11.50;99.90
21678;DHT22;11000;50.360;7.582;2022-11-15T06:07:44;11.50;99.90
21678;DHT22;11000;50.360;7.582;2022-11-15T06:10:05;11.50;99.90
21678;DHT22;11000;50.360;7.582;2022-11-15T06:12:26;11.50;99.90
21678;DHT22;11000;50.360;7.582;2022-11-15T06:14:46;11.50;99.90
21678;DHT22;11000;50.360;7.582;2022-11-15T06:17:07;11.50;99.90
21678;DHT22;11000;50.360;7.582;2022-11-15T06:19:27;11.50;99.90
21678;DHT22;11000;50.360;7.582;2022-11-15T06:21:52;11.40;99.90
21678;DHT22;11000;50.360;7.582;2022-11-15T06:24:13;11.40;99.90
21678;DHT22;11000;50.360;7.582;2022-11-15T06:26:33;11.30;99.90
21678;DHT22;11000;50.360;7.582;2022-11-15T06:28:54;11.30;99.90
21678;DHT22;11000;50.360;7.582;2022-11-15T06:31:14;11.30;99.90
21678;DHT22;11000;50.360;7.582;2022-11-15T06:33:35;11.30;99.90
21678;DHT22;11000;50.360;7.582;2022-11-15T06:35:55;11.20;99.90
21678;DHT22;11000;50.360;7.582;2022-11-15T06:38:19;11.30;99.90
21678;DHT22;11000;50.360;7.582;2022-11-15T06:40:40;11.30;99.90
21678;DHT22;11000;50.360;7.582;2022-11-15T06:43:00;11.30;99.90
21678;DHT22;11000;50.360;7.582;2022-11-15T06:45:21;11.30;99.90
21678;DHT22;11000;50.360;7.582;2022-11-15T06:47:46;11.30;99.90
21678;DHT22;11000;50.360;7.582;2022-11-15T06:50:07;11.30;99.90
21678;DHT22;11000;50.360;7.582;2022-11-15T06:52:27;11.20;99.90
21678;DHT22;11000;50.360;7.582;2022-11-15T06:54:52;11.30;99.90
21678;DHT22;11000;50.360;7.582;2022-11-15T06:57:13;11.30;99.90
21678;DHT22;11000;50.360;7.582;2022-11-15T06:59:33;11.30;99.90
21678;DHT22;11000;50.360;7.582;2022-11-15T07:01:54;11.30;99.90
21678;DHT22;11000;50.360;7.582;2022-11-15T07:04:14;11.30;99.90
21678;DHT22;11000;50.360;7.582;2022-11-15T07:06:35;11.30;99.90
21678;DHT22;11000;50.360;7.582;2022-11-15T07:08:55;11.30;99.90
21678;DHT22;11000;50.360;7.582;2022-11-15T07:11:16;11.30;99.90
21678;DHT22;11000;50.360;7.582;2022-11-15T07:13:36;11.30;99.90
21678;DHT22;11000;50.360;7.582;2022-11-15T07:15:57;11.30;99.90
21678;DHT22;11000;50.360;7.582;2022-11-15T07:18:17;11.30;99.90
21678;DHT22;11000;50.360;7.582;2022-11-15T07:20:38;11.30;99.90
21678;DHT22;11000;50.360;7.582;2022-11-15T07:23:01;11.40;99.90
21678;DHT22;11000;50.360;7.582;2022-11-15T07:25:22;11.40;99.90
21678;DHT22;11000;50.360;7.582;2022-11-15T07:27:42;11.40;99.90
21678;DHT22;11000;50.360;7.582;2022-11-15T07:30:03;11.40;99.90
21678;DHT22;11000;50.360;7.582;2022-11-15T07:32:24;11.40;99.90
21678;DHT22;11000;50.360;7.582;2022-11-15T07:34:45;11.40;99.90
21678;DHT22;11000;50.360;7.582;2022-11-15T07:37:06;11.40;99.90
21678;DHT22;11000;50.360;7.582;2022-11-15T07:39:27;11.40;99.90
21678;DHT22;11000;50.360;7.582;2022-11-15T07:41:47;11.40;99.90
21678;DHT22;11000;50.360;7.582;2022-11-15T07:44:09;11.40;99.90
21678;DHT22;11000;50.360;7.582;2022-11-15T07:46:31;11.40;99.90
21678;DHT22;11000;50.360;7.582;2022-11-15T07:48:51;11.50;99.90
21678;DHT22;11000;50.360;7.582;2022-11-15T07:51:15;11.50;99.90
21678;DHT22;11000;50.360;7.582;2022-11-15T07:53:36;11.50;99.90
21678;DHT22;11000;50.360;7.582;2022-11-15T07:55:57;11.50;99.90
21678;DHT22;11000;50.360;7.582;2022-11-15T07:58:17;11.60;99.90
21678;DHT22;11000;50.360;7.582;2022-11-15T08:00:38;11.60;99.90
21678;DHT22;11000;50.360;7.582;2022-11-15T08:03:13;11.70;99.90
21678;DHT22;11000;50.360;7.582;2022-11-15T08:05:35;11.70;99.90
21678;DHT22;11000;50.360;7.582;2022-11-15T08:07:56;11.70;99.90
21678;DHT22;11000;50.360;7.582;2022-11-15T08:10:16;11.70;99.90
21678;DHT22;11000;50.360;7.582;2022-11-15T08:12:39;11.80;99.90
21678;DHT22;11000;50.360;7.582;2022-11-15T08:14:59;11.80;99.90
21678;DHT22;11000;50.360;7.582;2022-11-15T08:17:20;11.80;99.90
21678;DHT22;11000;50.360;7.582;2022-11-15T08:19:40;12.00;99.90
21678;DHT22;11000;50.360;7.582;2022-11-15T08:22:01;12.00;99.90
21678;DHT22;11000;50.360;7.582;2022-11-15T08:24:21;12.10;99.90
21678;DHT22;11000;50.360;7.582;2022-11-15T08:26:42;12.10;99.90
21678;DHT22;11000;50.360;7.582;2022-11-15T08:29:02;12.20;99.90
21678;DHT22;11000;50.360;7.582;2022-11-15T08:31:23;12.20;99.90
21678;DHT22;11000;50.360;7.582;2022-11-15T08:33:44;12.20;99.90
21678;DHT22;11000;50.360;7.582;2022-11-15T08:36:04;12.30;99.90
21678;DHT22;11000;50.360;7.582;2022-11-15T08:38:26;12.30;99.90
21678;DHT22;11000;50.360;7.582;2022-11-15T08:40:46;12.30;99.90
21678;DHT22;11000;50.360;7.582;2022-11-15T08:43:07;12.40;99.90
21678;DHT22;11000;50.360;7.582;2022-11-15T08:45:28;12.40;99.90
21678;DHT22;11000;50.360;7.582;2022-11-15T08:47:49;12.50;99.90
21678;DHT22;11000;50.360;7.582;2022-11-15T08:50:09;12.50;99.90
21678;DHT22;11000;50.360;7.582;2022-11-15T08:52:30;12.50;99.90
21678;DHT22;11000;50.360;7.582;2022-11-15T08:54:50;12.50;99.90
21678;DHT22;11000;50.360;7.582;2022-11-15T08:57:11;12.60;99.90
21678;DHT22;11000;50.360;7.582;2022-11-15T08:59:31;12.60;99.90
21678;DHT22;11000;50.360;7.582;2022-11-15T09:01:52;12.60;99.90
21678;DHT22;11000;50.360;7.582;2022-11-15T09:04:12;12.60;99.90
21678;DHT22;11000;50.360;7.582;2022-11-15T09:06:33;12.60;99.90
21678;DHT22;11000;50.360;7.582;2022-11-15T09:08:53;12.70;99.90
21678;DHT22;11000;50.360;7.582;2022-11-15T09:11:14;12.60;99.90
21678;DHT22;11000;50.360;7.582;2022-11-15T09:13:36;12.70;99.90
21678;DHT22;11000;50.360;7.582;2022-11-15T09:15:58;12.70;99.90
21678;DHT22;11000;50.360;7.582;2022-11-15T09:18:19;12.70;99.90
21678;DHT22;11000;50.360;7.582;2022-11-15T09:20:42;12.70;99.90
21678;DHT22;11000;50.360;7.582;2022-11-15T09:23:04;12.70;99.90
21678;DHT22;11000;50.360;7.582;2022-11-15T09:25:25;12.80;99.90
21678;DHT22;11000;50.360;7.582;2022-11-15T09:27:45;12.80;99.90
21678;DHT22;11000;50.360;7.582;2022-11-15T09:30:06;12.90;99.90
21678;DHT22;11000;50.360;7.582;2022-11-15T09:32:29;13.00;99.90
21678;DHT22;11000;50.360;7.582;2022-11-15T09:34:53;13.00;99.90
21678;DHT22;11000;50.360;7.582;2022-11-15T09:37:13;13.00;99.90
21678;DHT22;11000;50.360;7.582;2022-11-15T09:39:34;13.00;99.90
21678;DHT22;11000;50.360;7.582;2022-11-15T09:44:51;13.10;99.90
21678;DHT22;11000;50.360;7.582;2022-11-15T09:47:45;13.00;99.90
21678;DHT22;11000;50.360;7.582;2022-11-15T09:50:15;13.10;99.90
21678;DHT22;11000;50.360;7.582;2022-11-15T09:52:39;13.30;99.90
21678;DHT22;11000;50.360;7.582;2022-11-15T09:55:02;13.40;99.90
21678;DHT22;11000;50.360;7.582;2022-11-15T10:00:33;13.70;99.90
21678;DHT22;11000;50.360;7.582;2022-11-15T10:03:11;13.80;99.90
21678;DHT22;11000;50.360;7.582;2022-11-15T10:05:41;13.90;99.90
21678;DHT22;11000;50.360;7.582;2022-11-15T10:10:57;14.00;99.90
21678;DHT22;11000;50.360;7.582;2022-11-15T10:13:26;14.00;99.90
21678;DHT22;11000;50.360;7.582;2022-11-15T10:15:50;14.10;99.90
21678;DHT22;11000;50.360;7.582;2022-11-15T10:18:47;13.90;99.90
21678;DHT22;11000;50.360;7.582;2022-11-15T10:21:20;13.80;99.90
21678;DHT22;11000;50.360;7.582;2022-11-15T10:23:40;13.70;99.90
21678;DHT22;11000;50.360;7.582;2022-11-15T10:26:01;13.70;99.90
21678;DHT22;11000;50.360;7.582;2022-11-15T10:28:29;13.80;99.90
21678;DHT22;11000;50.360;7.582;2022-11-15T10:30:53;13.90;99.90
21678;DHT22;11000;50.360;7.582;2022-11-15T10:33:17;13.90;99.90
21678;DHT22;11000;50.360;7.582;2022-11-15T10:35:40;13.90;99.90
21678;DHT22;11000;50.360;7.582;2022-11-15T10:38:07;13.80;99.90
21678;DHT22;11000;50.360;7.582;2022-11-15T10:40:28;13.80;99.90
21678;DHT22;11000;50.360;7.582;2022-11-15T10:43:21;13.90;99.90
21678;DHT22;11000;50.360;7.582;2022-11-15T10:45:42;14.00;99.90
21678;DHT22;11000;50.360;7.582;2022-11-15T10:48:22;14.00;99.90
21678;DHT22;11000;50.360;7.582;2022-11-15T10:50:47;14.00;99.90
21678;DHT22;11000;50.360;7.582;2022-11-15T10:53:22;13.90;99.90
21678;DHT22;11000;50.360;7.582;2022-11-15T10:55:47;13.90;99.90
21678;DHT22;11000;50.360;7.582;2022-11-15T11:00:41;14.00;99.90
21678;DHT22;11000;50.360;7.582;2022-11-15T11:05:42;14.20;99.90
21678;DHT22;11000;50.360;7.582;2022-11-15T11:08:09;14.30;99.90
21678;DHT22;11000;50.360;7.582;2022-11-15T11:10:39;14.30;99.90
21678;DHT22;11000;50.360;7.582;2022-11-15T11:13:14;14.40;99.90
21678;DHT22;11000;50.360;7.582;2022-11-15T11:15:35;14.60;99.90
21678;DHT22;11000;50.360;7.582;2022-11-15T11:18:05;14.70;99.90
21678;DHT22;11000;50.360;7.582;2022-11-15T11:20:42;14.50;99.90
21678;DHT22;11000;50.360;7.582;2022-11-15T11:28:43;14.70;99.90
21678;DHT22;11000;50.360;7.582;2022-11-15T11:31:09;14.70;99.90
21678;DHT22;11000;50.360;7.582;2022-11-15T11:33:51;15.00;99.90
21678;DHT22;11000;50.360;7.582;2022-11-15T11:41:53;15.20;99.90
21678;DHT22;11000;50.360;7.582;2022-11-15T11:44:36;15.00;99.90
21678;DHT22;11000;50.360;7.582;2022-11-15T11:47:10;15.00;99.90
21678;DHT22;11000;50.360;7.582;2022-11-15T11:52:31;15.10;99.90
21678;DHT22;11000;50.360;7.582;2022-11-15T12:00:03;15.10;99.90
21678;DHT22;11000;50.360;7.582;2022-11-15T12:02:40;14.90;99.90
21678;DHT22;11000;50.360;7.582;2022-11-15T12:05:29;14.90;99.90
21678;DHT22;11000;50.360;7.582;2022-11-15T12:07:56;14.90;99.90
21678;DHT22;11000;50.360;7.582;2022-11-15T12:10:25;14.80;99.90
21678;DHT22;11000;50.360;7.582;2022-11-15T12:13:00;14.90;99.90
21678;DHT22;11000;50.360;7.582;2022-11-15T12:15:27;14.90;99.90
21678;DHT22;11000;50.360;7.582;2022-11-15T12:17:50;15.10;99.90
21678;DHT22;11000;50.360;7.582;2022-11-15T12:20:15;15.10;99.90
21678;DHT22;11000;50.360;7.582;2022-11-15T12:22:38;15.10;99.90
21678;DHT22;11000;50.360;7.582;2022-11-15T12:28:06;15.00;99.90
21678;DHT22;11000;50.360;7.582;2022-11-15T12:30:44;14.90;99.90
21678;DHT22;11000;50.360;7.582;2022-11-15T12:36:09;14.80;99.90
21678;DHT22;11000;50.360;7.582;2022-11-15T12:41:17;14.90;99.90
21678;DHT22;11000;50.360;7.582;2022-11-15T12:43:39;14.90;99.90
21678;DHT22;11000;50.360;7.582;2022-11-15T12:46:05;14.80;99.90
21678;DHT22;11000;50.360;7.582;2022-11-15T12:50:57;15.00;99.90
21678;DHT22;11000;50.360;7.582;2022-11-15T12:56:09;15.00;99.90
21678;DHT22;11000;50.360;7.582;2022-11-15T12:58:54;15.10;99.90
21678;DHT22;11000;50.360;7.582;2022-11-15T13:07:03;15.00;99.90
21678;DHT22;11000;50.360;7.582;2022-11-15T13:11:55;15.00;99.90
21678;DHT22;11000;50.360;7.582;2022-11-15T13:16:59;15.10;99.90
21678;DHT22;11000;50.360;7.582;2022-11-15T13:19:22;15.20;99.90
21678;DHT22;11000;50.360;7.582;2022-11-15T13:21:49;15.30;99.90
21678;DHT22;11000;50.360;7.582;2022-11-15T13:24:28;15.10;99.90
21678;DHT22;11000;50.360;7.582;2022-11-15T13:26:48;15.10;99.90
21678;DHT22;11000;50.360;7.582;2022-11-15T13:29:19;14.90;99.90
21678;DHT22;11000;50.360;7.582;2022-11-15T13:31:42;14.90;99.90
21678;DHT22;11000;50.360;7.582;2022-11-15T13:36:35;14.80;99.90
21678;DHT22;11000;50.360;7.582;2022-11-15T13:39:26;14.80;99.90
21678;DHT22;11000;50.360;7.582;2022-11-15T13:41:51;14.90;99.90
21678;DHT22;11000;50.360;7.582;2022-11-15T13:44:22;14.80;99.90
21678;DHT22;11000;50.360;7.582;2022-11-15T13:46:43;14.80;99.90
21678;DHT22;11000;50.360;7.582;2022-11-15T13:49:08;14.90;99.90
21678;DHT22;11000;50.360;7.582;2022-11-15T13:54:17;14.90;99.90
21678;DHT22;11000;50.360;7.582;2022-11-15T13:56:44;14.80;99.90
21678;DHT22;11000;50.360;7.582;2022-11-15T14:01:44;14.70;99.90
21678;DHT22;11000;50.360;7.582;2022-11-15T14:04:04;14.70;99.90
21678;DHT22;11000;50.360;7.582;2022-11-15T14:06:28;14.70;99.90
21678;DHT22;11000;50.360;7.582;2022-11-15T14:11:30;14.70;99.90
21678;DHT22;11000;50.360;7.582;2022-11-15T14:16:43;14.70;99.90
21678;DHT22;11000;50.360;7.582;2022-11-15T14:19:05;14.80;99.90
21678;DHT22;11000;50.360;7.582;2022-11-15T14:21:26;14.70;99.90
21678;DHT22;11000;50.360;7.582;2022-11-15T14:23:47;14.70;99.90
21678;DHT22;11000;50.360;7.582;2022-11-15T14:26:29;14.70;99.90
21678;DHT22;11000;50.360;7.582;2022-11-15T14:28:50;14.70;99.90
21678;DHT22;11000;50.360;7.582;2022-11-15T14:31:12;14.70;99.90
21678;DHT22;11000;50.360;7.582;2022-11-15T14:33:36;14.60;99.90
21678;DHT22;11000;50.360;7.582;2022-11-15T14:36:02;14.60;99.90
21678;DHT22;11000;50.360;7.582;2022-11-15T14:38:24;14.60;99.90
21678;DHT22;11000;50.360;7.582;2022-11-15T14:40:45;14.60;99.90
21678;DHT22;11000;50.360;7.582;2022-11-15T14:43:08;14.50;99.90
21678;DHT22;11000;50.360;7.582;2022-11-15T14:45:35;14.40;99.90
21678;DHT22;11000;50.360;7.582;2022-11-15T14:47:55;14.40;99.90
21678;DHT22;11000;50.360;7.582;2022-11-15T14:50:18;14.40;99.90
21678;DHT22;11000;50.360;7.582;2022-11-15T14:52:40;14.40;99.90
21678;DHT22;11000;50.360;7.582;2022-11-15T14:55:02;14.40;99.90
21678;DHT22;11000;50.360;7.582;2022-11-15T14:57:23;14.40;99.90
21678;DHT22;11000;50.360;7.582;2022-11-15T14:59:44;14.30;99.90
21678;DHT22;11000;50.360;7.582;2022-11-15T15:02:14;14.40;99.90
21678;DHT22;11000;50.360;7.582;2022-11-15T15:04:36;14.30;99.90
21678;DHT22;11000;50.360;7.582;2022-11-15T15:06:56;14.30;99.90
21678;DHT22;11000;50.360;7.582;2022-11-15T15:09:17;14.30;99.90
21678;DHT22;11000;50.360;7.582;2022-11-15T15:11:37;14.30;99.90
21678;DHT22;11000;50.360;7.582;2022-11-15T15:13:58;14.20;99.90
21678;DHT22;11000;50.360;7.582;2022-11-15T15:16:21;14.20;99.90
21678;DHT22;11000;50.360;7.582;2022-11-15T15:18:41;14.20;99.90
21678;DHT22;11000;50.360;7.582;2022-11-15T15:21:02;14.20;99.90
21678;DHT22;11000;50.360;7.582;2022-11-15T15:23:27;14.10;99.90
21678;DHT22;11000;50.360;7.582;2022-11-15T15:25:51;14.10;99.90
21678;DHT22;11000;50.360;7.582;2022-11-15T15:28:13;14.10;99.90
21678;DHT22;11000;50.360;7.582;2022-11-15T15:30:33;14.20;99.90
21678;DHT22;11000;50.360;7.582;2022-11-15T15:32:54;14.00;99.90
21678;DHT22;11000;50.360;7.582;2022-11-15T15:35:16;14.10;99.90
21678;DHT22;11000;50.360;7.582;2022-11-15T15:37:36;14.10;99.90
21678;DHT22;11000;50.360;7.582;2022-11-15T15:39:57;14.00;99.90
21678;DHT22;11000;50.360;7.582;2022-11-15T15:42:19;14.00;99.90
21678;DHT22;11000;50.360;7.582;2022-11-15T15:44:40;14.00;99.90
21678;DHT22;11000;50.360;7.582;2022-11-15T15:47:00;14.00;99.90
21678;DHT22;11000;50.360;7.582;2022-11-15T15:49:21;13.90;99.90
21678;DHT22;11000;50.360;7.582;2022-11-15T15:51:41;13.90;99.90
21678;DHT22;11000;50.360;7.582;2022-11-15T15:54:02;13.90;99.90
21678;DHT22;11000;50.360;7.582;2022-11-15T15:56:22;13.90;99.90
21678;DHT22;11000;50.360;7.582;2022-11-15T15:58:43;13.90;99.90
21678;DHT22;11000;50.360;7.582;2022-11-15T16:01:04;13.90;99.90
21678;DHT22;11000;50.360;7.582;2022-11-15T16:03:24;13.90;99.90
21678;DHT22;11000;50.360;7.582;2022-11-15T16:05:45;13.80;99.90
21678;DHT22;11000;50.360;7.582;2022-11-15T16:08:20;13.80;99.90
21678;DHT22;11000;50.360;7.582;2022-11-15T16:10:40;13.80;99.90
21678;DHT22;11000;50.360;7.582;2022-11-15T16:13:01;13.80;99.90
21678;DHT22;11000;50.360;7.582;2022-11-15T16:15:23;13.80;99.90
21678;DHT22;11000;50.360;7.582;2022-11-15T16:17:48;13.80;99.90
21678;DHT22;11000;50.360;7.582;2022-11-15T16:20:23;13.80;99.90
21678;DHT22;11000;50.360;7.582;2022-11-15T16:22:44;13.80;99.90
21678;DHT22;11000;50.360;7.582;2022-11-15T16:25:05;13.80;99.90
21678;DHT22;11000;50.360;7.582;2022-11-15T16:27:25;13.70;99.90
21678;DHT22;11000;50.360;7.582;2022-11-15T16:29:46;13.70;99.90
21678;DHT22;11000;50.360;7.582;2022-11-15T16:32:07;13.70;99.90
21678;DHT22;11000;50.360;7.582;2022-11-15T16:34:28;13.70;99.90
21678;DHT22;11000;50.360;7.582;2022-11-15T16:36:49;13.70;99.90
21678;DHT22;11000;50.360;7.582;2022-11-15T16:39:13;13.80;99.90
21678;DHT22;11000;50.360;7.582;2022-11-15T16:41:33;13.70;99.90
21678;DHT22;11000;50.360;7.582;2022-11-15T16:43:54;13.60;99.90
21678;DHT22;11000;50.360;7.582;2022-11-15T16:46:23;13.60;99.90
21678;DHT22;11000;50.360;7.582;2022-11-15T16:48:44;13.60;99.90